Time;durP1;ratioP1;P1;durP2;ratioP2;P2;SDS_P1;SDS_P2;PMS_P1;PMS_P2;Temp;Humidity;BMP_temperature;BMP_pressure;BME280_temperature;BME280_humidity;BME280_pressure;Samples;Min_cycle;Max_cycle;Signal;HPM_P1;HPM_P2
2022/05/03 00:00:57;;;;;;;0.10;0.10;;;11.10;99.90;303.40;52991.00;;;;5055705;28;20244;-70
2022/05/03 00:03:36;;;;;;;0.10;0.10;;;11.10;99.90;303.50;52988.00;;;;5069844;28;20185;-70
2022/05/03 00:06:18;;;;;;;0.10;0.10;;;11.10;99.90;303.60;52976.00;;;;5076683;28;20210;-71
2022/05/03 00:08:54;;;;;;;0.00;0.00;;;11.30;99.90;303.80;52961.00;;;;5072621;28;20190;-71
2022/05/03 00:11:31;;;;;;;0.10;0.10;;;11.40;99.90;303.70;52961.00;;;;5058734;28;20686;-71
2022/05/03 00:14:11;;;;;;;0.10;0.10;;;11.40;99.90;303.90;52950.00;;;;5073722;28;20208;-71
2022/05/03 00:16:41;;;;;;;0.10;0.10;;;11.50;99.90;303.90;52950.00;;;;5051431;28;20663;-71
2022/05/03 00:19:10;;;;;;;0.10;0.10;;;11.50;99.90;304.00;52944.00;;;;5051370;28;20236;-71
2022/05/03 00:21:39;;;;;;;0.10;0.10;;;11.50;99.90;304.00;52938.00;;;;5052492;28;20248;-71
2022/05/03 00:24:08;;;;;;;0.00;0.00;;;11.50;99.90;304.20;52922.00;;;;5073663;28;20277;-71
2022/05/03 00:26:37;;;;;;;0.10;0.10;;;11.60;99.90;304.30;52913.00;;;;5065495;28;20198;-71
2022/05/03 00:29:07;;;;;;;0.10;0.10;;;11.70;99.90;304.20;52929.00;;;;5071869;28;20193;-71
2022/05/03 00:31:35;;;;;;;0.10;0.10;;;11.60;99.90;304.00;52939.00;;;;5072051;28;20186;-70
2022/05/03 00:34:04;;;;;;;0.10;0.10;;;11.60;99.90;303.80;52951.00;;;;5071559;28;20544;-70
2022/05/03 00:36:32;;;;;;;0.10;0.10;;;11.50;99.90;304.00;52931.00;;;;5086929;28;20193;-70
2022/05/03 00:39:00;;;;;;;0.10;0.10;;;11.60;99.90;304.00;52932.00;;;;5095857;28;20199;-70
2022/05/03 00:41:39;;;;;;;0.10;0.10;;;11.50;99.90;303.80;52943.00;;;;5069035;28;20197;-70
2022/05/03 00:47:16;;;;;;;0.10;0.10;;;11.10;99.90;303.10;53001.00;;;;5055316;28;20201;-70
2022/05/03 00:50:01;;;;;;;0.10;0.10;;;10.90;99.90;302.80;53024.00;;;;5055419;28;20236;-70
2022/05/03 00:52:38;;;;;;;0.10;0.10;;;10.80;99.90;302.70;53035.00;;;;5055148;28;20198;-70
2022/05/03 00:55:50;;;;;;;0.10;0.10;;;10.70;99.90;302.70;53035.00;;;;5091181;28;20220;-70
2022/05/03 00:58:41;;;;;;;0.10;0.10;;;10.70;99.90;302.60;53034.00;;;;5055350;28;20183;-70
2022/05/03 01:01:31;;;;;;;0.10;0.10;;;10.70;99.90;302.90;53019.00;;;;5056046;28;20199;-71
2022/05/03 01:04:13;;;;;;;0.10;0.10;;;10.80;99.90;303.00;53011.00;;;;5074150;28;20674;-71
2022/05/03 01:06:55;;;;;;;0.10;0.10;;;10.90;99.90;303.10;52999.00;;;;5068714;28;20205;-70
2022/05/03 01:09:34;;;;;;;0.10;0.10;;;11.00;99.90;303.20;52995.00;;;;5073502;28;20204;-70
2022/05/03 01:12:26;;;;;;;0.10;0.10;;;11.00;99.90;303.30;52979.00;;;;5056010;28;20665;-70
2022/05/03 01:15:10;;;;;;;0.03;0.03;;;11.10;99.90;303.40;52978.00;;;;5071730;28;20244;-70
2022/05/03 01:17:48;;;;;;;0.10;0.10;;;11.20;99.90;303.60;52960.00;;;;5054802;28;20194;-71
2022/05/03 01:20:31;;;;;;;0.10;0.10;;;11.30;99.90;303.50;52965.00;;;;5062420;28;20201;-71
2022/05/03 01:23:43;;;;;;;0.10;0.10;;;11.30;99.90;303.60;52960.00;;;;5075083;28;20203;-71
2022/05/03 01:26:55;;;;;;;0.10;0.10;;;11.30;99.90;303.40;52979.00;;;;5077850;28;20667;-71
2022/05/03 01:29:33;;;;;;;0.10;0.10;;;11.20;99.90;303.20;52993.00;;;;5055172;28;20621;-71
2022/05/03 01:32:03;;;;;;;0.10;0.10;;;11.20;99.90;303.20;52992.00;;;;5073298;28;20198;-71
2022/05/03 01:34:32;;;;;;;0.00;0.00;;;11.20;99.90;303.00;53005.00;;;;5067016;28;20738;-71
2022/05/03 01:37:39;;;;;;;0.10;0.10;;;11.10;99.90;302.80;53019.00;;;;5075032;28;20724;-71
2022/05/03 01:40:12;;;;;;;0.10;0.10;;;11.00;99.90;302.80;53021.00;;;;5094671;28;20196;-71
2022/05/03 01:43:05;;;;;;;0.10;0.10;;;10.90;99.90;302.80;53032.00;;;;5074649;28;20193;-71
2022/05/03 01:45:43;;;;;;;0.10;0.10;;;10.90;99.90;302.90;53022.00;;;;5092634;28;20244;-71
2022/05/03 01:50:18;;;;;;;0.00;0.00;;;11.00;99.90;302.80;53023.00;;;;5094057;28;20277;-71
2022/05/03 01:51:31;;;;;;;0.10;0.10;;;10.90;99.90;302.40;53054.00;;;;5072242;28;20687;-71
2022/05/03 01:54:28;;;;;;;0.00;0.00;;;10.70;99.90;302.40;53054.00;;;;5064268;28;20236;-71
2022/05/03 01:57:07;;;;;;;0.10;0.10;;;10.70;99.90;302.50;53049.00;;;;5065465;28;20222;-72
2022/05/03 01:59:54;;;;;;;0.10;0.10;;;10.80;99.90;302.50;53047.00;;;;5062818;28;20256;-72
2022/05/03 02:02:43;;;;;;;0.10;0.10;;;10.70;99.90;302.50;53047.00;;;;5054178;28;20210;-71
2022/05/03 02:05:27;;;;;;;0.10;0.10;;;10.80;99.90;302.30;53062.00;;;;5076324;28;20655;-72
2022/05/03 02:07:58;;;;;;;0.10;0.10;;;10.70;99.90;302.30;53063.00;;;;5054007;28;20194;-71
2022/05/03 02:10:58;;;;;;;0.10;0.10;;;10.70;99.90;302.00;53087.00;;;;5063425;28;20197;-72
2022/05/03 02:16:53;;;;;;;0.10;0.10;;;10.40;99.90;301.80;53104.00;;;;5087984;28;20224;-72
2022/05/03 02:19:47;;;;;;;0.10;0.10;;;10.40;99.90;301.50;53120.00;;;;5094149;28;20193;-70
2022/05/03 02:22:42;;;;;;;0.00;0.00;;;10.20;99.90;301.60;53110.00;;;;5077941;28;20682;-70
2022/05/03 02:25:20;;;;;;;0.10;0.10;;;10.30;99.90;301.30;53135.00;;;;5083392;28;20222;-70
2022/05/03 02:27:57;;;;;;;0.10;0.10;;;10.10;99.90;301.20;53145.00;;;;5069341;28;20193;-70
2022/05/03 02:30:28;;;;;;;0.10;0.10;;;10.10;99.90;301.10;53157.00;;;;5069900;28;20606;-70
2022/05/03 02:33:04;;;;;;;0.10;0.10;;;10.00;99.90;301.30;53143.00;;;;5059421;28;20203;-70
2022/05/03 02:35:35;;;;;;;0.10;0.10;;;10.10;99.90;301.30;53142.00;;;;5060440;28;20217;-70
2022/05/03 02:38:06;;;;;;;0.10;0.10;;;10.10;99.90;301.10;53159.00;;;;5063141;28;20205;-70
2022/05/03 02:40:44;;;;;;;0.10;0.10;;;10.10;99.90;301.00;53166.00;;;;5073617;28;20202;-73
2022/05/03 02:43:17;;;;;;;0.10;0.10;;;10.00;99.90;300.90;53174.00;;;;5063433;28;20675;-72
2022/05/03 02:45:57;;;;;;;0.00;0.00;;;9.90;99.90;300.80;53181.00;;;;5064962;28;20220;-71
2022/05/03 02:48:38;;;;;;;0.10;0.10;;;9.80;99.90;300.70;53186.00;;;;5067287;28;20194;-70
2022/05/03 02:51:12;;;;;;;0.00;0.00;;;9.80;99.90;300.70;53183.00;;;;5058421;28;20198;-72
2022/05/03 02:53:46;;;;;;;0.10;0.10;;;9.80;99.90;300.80;53179.00;;;;5077388;28;20201;-71
2022/05/03 02:56:23;;;;;;;0.00;0.00;;;9.90;99.90;300.90;53175.00;;;;5071980;28;20201;-70
2022/05/03 02:59:11;;;;;;;0.10;0.10;;;9.90;99.90;300.90;53171.00;;;;5065743;28;20190;-70
2022/05/03 03:01:56;;;;;;;0.10;0.10;;;10.00;99.90;301.00;53163.00;;;;5065285;28;20202;-70
2022/05/03 03:04:39;;;;;;;0.10;0.10;;;10.00;99.90;301.10;53160.00;;;;5084603;28;20221;-70
2022/05/03 03:07:17;;;;;;;0.00;0.00;;;10.10;99.90;301.00;53162.00;;;;5092524;28;20607;-70
2022/05/03 03:09:50;;;;;;;0.10;0.10;;;10.00;99.90;300.90;53169.00;;;;5065660;28;20182;-70
2022/05/03 03:12:41;;;;;;;0.10;0.10;;;10.00;99.90;300.80;53179.00;;;;5066293;28;20238;-70
2022/05/03 03:15:11;;;;;;;0.10;0.10;;;10.00;99.90;300.70;53188.00;;;;5060704;28;20249;-70
2022/05/03 03:17:43;;;;;;;0.10;0.10;;;9.90;99.90;300.80;53184.00;;;;5052085;28;20222;-70
2022/05/03 03:20:13;;;;;;;0.10;0.10;;;9.90;99.90;300.40;53216.00;;;;5059593;28;20563;-70
2022/05/03 03:22:45;;;;;;;0.10;0.10;;;9.60;99.90;300.20;53226.00;;;;5052696;28;20606;-71
2022/05/03 03:25:20;;;;;;;0.10;0.10;;;9.50;99.90;300.10;53233.00;;;;5058301;28;20212;-71
2022/05/03 03:27:51;;;;;;;0.10;0.10;;;9.50;99.90;300.20;53228.00;;;;5060465;28;20267;-71
2022/05/03 03:30:22;;;;;;;0.10;0.10;;;9.50;99.90;300.20;53228.00;;;;5068656;28;20276;-72
2022/05/03 03:32:55;;;;;;;0.00;0.00;;;9.60;99.90;300.30;53216.00;;;;5072058;28;20623;-69
2022/05/03 03:35:24;;;;;;;0.10;0.10;;;9.70;99.90;300.40;53212.00;;;;5071777;28;20220;-70
2022/05/03 03:37:57;;;;;;;0.00;0.00;;;9.70;99.90;300.40;53213.00;;;;5082106;28;20220;-73
2022/05/03 03:40:27;;;;;;;0.00;0.00;;;9.70;99.90;300.40;53211.00;;;;5092336;28;20629;-70
2022/05/03 03:42:55;;;;;;;0.10;0.10;;;9.70;99.90;300.40;53206.00;;;;5090648;28;20185;-70
2022/05/03 03:45:24;;;;;;;0.03;0.03;;;9.80;99.90;299.90;53263.00;;;;5089749;28;20617;-69
2022/05/03 03:47:53;;;;;;;0.10;0.10;;;9.30;99.90;299.40;53291.00;;;;5091883;28;20193;-70
2022/05/03 03:50:25;;;;;;;0.10;0.10;;;9.00;99.90;299.20;53309.00;;;;5092351;28;20961;-72
2022/05/03 03:52:55;;;;;;;0.10;0.10;;;8.90;99.90;299.30;53299.00;;;;5080169;28;20304;-70
2022/05/03 03:55:26;;;;;;;0.10;0.10;;;8.90;99.90;299.40;53295.00;;;;5084266;28;20232;-71
2022/05/03 03:57:56;;;;;;;0.10;0.10;;;9.00;99.90;299.20;53312.00;;;;5059294;28;20206;-71
2022/05/03 04:00:24;;;;;;;0.10;0.10;;;8.90;99.90;299.10;53316.00;;;;5065163;28;20202;-71
2022/05/03 04:02:53;;;;;;;0.10;0.10;;;8.90;99.90;299.00;53330.00;;;;5054870;28;20208;-71
2022/05/03 04:05:23;;;;;;;0.10;0.10;;;8.80;99.90;298.90;53334.00;;;;5060266;28;20218;-71
2022/05/03 04:07:53;;;;;;;0.10;0.10;;;8.70;99.90;298.80;53343.00;;;;5081743;28;20189;-70
2022/05/03 04:10:22;;;;;;;0.10;0.10;;;8.60;99.90;298.80;53342.00;;;;5071827;28;20659;-70
2022/05/03 04:12:50;;;;;;;0.10;0.10;;;8.70;99.90;298.80;53345.00;;;;5068950;28;20201;-71
2022/05/03 04:15:18;;;;;;;0.10;0.10;;;8.60;99.90;298.80;53339.00;;;;5075841;28;20213;-71
2022/05/03 04:17:46;;;;;;;0.10;0.10;;;8.70;99.90;298.90;53338.00;;;;5076095;28;20214;-70
2022/05/03 04:20:16;;;;;;;0.08;0.08;;;8.70;99.90;298.90;53338.00;;;;5074716;28;20204;-72
2022/05/03 04:22:44;;;;;;;0.10;0.10;;;8.80;99.90;298.90;53334.00;;;;5063029;28;20202;-70
2022/05/03 04:25:14;;;;;;;0.10;0.10;;;8.80;99.90;299.10;53322.00;;;;5062597;28;20706;-70
2022/05/03 04:27:42;;;;;;;0.05;0.05;;;8.80;99.90;299.20;53315.00;;;;5070815;28;20205;-71
2022/05/03 04:30:12;;;;;;;0.10;0.10;;;8.80;99.90;299.40;53296.00;;;;5074618;28;20273;-71
2022/05/03 04:32:40;;;;;;;0.10;0.10;;;8.90;99.90;299.50;53285.00;;;;5072919;28;20613;-71
2022/05/03 04:35:09;;;;;;;0.10;0.10;;;9.00;99.90;299.60;53279.00;;;;5069888;28;20630;-73
2022/05/03 04:37:38;;;;;;;0.10;0.10;;;9.00;99.90;299.80;53264.00;;;;5071937;28;20620;-71
2022/05/03 04:40:08;;;;;;;0.10;0.10;;;9.10;99.90;299.80;53260.00;;;;5071985;28;20190;-71
2022/05/03 04:42:37;;;;;;;0.10;0.10;;;9.20;99.90;299.90;53255.00;;;;5073203;28;20251;-71
2022/05/03 04:45:06;;;;;;;0.10;0.10;;;9.30;99.90;299.80;53262.00;;;;5072210;28;20206;-71
2022/05/03 04:47:34;;;;;;;0.10;0.10;;;9.20;99.90;299.80;53272.00;;;;5072156;28;20209;-70
2022/05/03 04:50:03;;;;;;;0.10;0.10;;;9.20;99.90;299.80;53259.00;;;;5072095;28;20289;-71
2022/05/03 04:52:30;;;;;;;0.10;0.10;;;9.30;99.90;300.00;53258.00;;;;5071499;28;20197;-70
2022/05/03 04:54:58;;;;;;;0.10;0.10;;;9.40;99.90;300.10;53246.00;;;;5071117;28;20213;-70
2022/05/03 04:57:26;;;;;;;0.03;0.03;;;9.50;99.90;300.00;53260.00;;;;5071439;28;20221;-71
2022/05/03 04:59:56;;;;;;;0.10;0.10;;;9.40;99.90;300.00;53256.00;;;;5071283;28;20186;-70
2022/05/03 05:02:23;;;;;;;0.10;0.10;;;9.40;99.90;300.00;53259.00;;;;5071548;28;20258;-70
2022/05/03 05:04:52;;;;;;;0.10;0.10;;;9.30;99.90;299.90;53262.00;;;;5072328;28;20531;-70
2022/05/03 05:07:20;;;;;;;0.10;0.10;;;9.30;99.90;300.00;53257.00;;;;5070821;28;20213;-70
2022/05/03 05:12:31;;;;;;;0.10;0.10;;;9.40;99.90;300.50;53226.00;;;;5070795;28;20217;-70
2022/05/03 05:15:00;;;;;;;0.10;0.10;;;9.60;99.90;300.80;53189.00;;;;5071329;28;20218;-70
2022/05/03 05:17:28;;;;;;;0.10;0.10;;;9.70;99.90;301.10;53165.00;;;;5071219;28;20226;-70
2022/05/03 05:19:56;;;;;;;0.10;0.10;;;9.80;99.90;301.40;53143.00;;;;5071144;28;20251;-70
2022/05/03 05:22:24;;;;;;;0.00;0.00;;;10.00;99.90;301.50;53131.00;;;;5073255;28;20194;-71
2022/05/03 05:24:52;;;;;;;0.10;0.10;;;10.10;99.90;301.70;53115.00;;;;5074830;28;20723;-70
2022/05/03 05:27:20;;;;;;;0.10;0.10;;;10.10;99.90;301.80;53108.00;;;;5074775;28;20194;-70
2022/05/03 05:29:48;;;;;;;0.10;0.10;;;10.20;99.90;301.90;53099.00;;;;5074994;28;20558;-70
2022/05/03 05:32:18;;;;;;;0.10;0.10;;;10.20;99.90;302.10;53084.00;;;;5075128;28;20190;-71
2022/05/03 05:34:46;;;;;;;0.10;0.10;;;10.30;99.90;302.00;53094.00;;;;5074527;28;20214;-70
2022/05/03 05:37:14;;;;;;;0.10;0.10;;;10.30;99.90;302.10;53081.00;;;;5075084;28;20267;-70
2022/05/03 05:39:43;;;;;;;0.10;0.10;;;10.40;99.90;302.30;53063.00;;;;5074941;28;20222;-70
2022/05/03 05:42:11;;;;;;;0.00;0.00;;;10.50;99.90;302.40;53058.00;;;;5074717;28;20186;-71
2022/05/03 05:44:39;;;;;;;0.10;0.10;;;10.50;99.90;302.50;53049.00;;;;5074587;28;20225;-73
2022/05/03 05:47:08;;;;;;;0.10;0.10;;;10.60;99.90;302.40;53058.00;;;;5074163;28;20204;-73
2022/05/03 05:49:37;;;;;;;0.10;0.10;;;10.60;99.90;302.20;53083.00;;;;5074743;28;20193;-71
2022/05/03 05:54:52;;;;;;;0.10;0.10;;;10.50;99.90;302.30;53066.00;;;;5075013;28;20219;-71
2022/05/03 05:57:20;;;;;;;0.10;0.10;;;10.40;99.90;302.10;53088.00;;;;5073978;28;20721;-70
2022/05/03 05:59:49;;;;;;;0.10;0.10;;;10.20;99.90;302.10;53091.00;;;;5074336;28;20679;-71
2022/05/03 06:02:17;;;;;;;0.10;0.10;;;10.30;99.90;302.30;53074.00;;;;5074575;28;20433;-71
2022/05/03 06:04:47;;;;;;;0.10;0.10;;;10.40;99.90;302.50;53063.00;;;;5074425;28;20729;-70
2022/05/03 06:07:21;;;;;;;0.10;0.10;;;10.50;99.90;302.50;53058.00;;;;5074757;28;20189;-70
2022/05/03 06:09:50;;;;;;;0.10;0.10;;;10.60;99.90;302.60;53053.00;;;;5074158;28;20251;-70
2022/05/03 06:12:19;;;;;;;0.10;0.10;;;10.60;99.90;302.70;53043.00;;;;5075000;28;20216;-70
2022/05/03 06:14:47;;;;;;;0.10;0.10;;;10.70;99.90;302.90;53025.00;;;;5074206;28;20217;-70
2022/05/03 06:17:15;;;;;;;0.10;0.10;;;10.80;99.90;303.00;53018.00;;;;5073835;28;20199;-70
2022/05/03 06:19:44;;;;;;;0.10;0.10;;;10.90;99.90;303.20;53005.00;;;;5073900;28;20559;-71
2022/05/03 06:22:13;;;;;;;0.10;0.10;;;10.90;99.90;303.30;52994.00;;;;5073671;28;20189;-70
2022/05/03 06:24:45;;;;;;;0.10;0.10;;;11.00;99.90;303.70;52959.00;;;;5073611;28;20220;-70
2022/05/03 06:27:13;;;;;;;0.00;0.00;;;11.20;99.90;304.00;52938.00;;;;5073246;28;20198;-70
2022/05/03 06:29:42;;;;;;;0.08;0.08;;;11.30;99.90;304.40;52908.00;;;;5073842;28;20404;-70
2022/05/03 06:32:11;;;;;;;0.10;0.10;;;11.50;99.90;304.60;52888.00;;;;5074490;28;20682;-70
2022/05/03 06:34:39;;;;;;;0.10;0.10;;;11.70;99.90;304.80;52875.00;;;;5075133;28;20213;-73
2022/05/03 06:37:07;;;;;;;0.00;0.00;;;11.80;99.90;304.90;52865.00;;;;5073033;28;20203;-70
2022/05/03 06:39:37;;;;;;;0.10;0.10;;;11.80;99.90;304.90;52868.00;;;;5073331;28;20213;-70
2022/05/03 06:42:06;;;;;;;0.10;0.10;;;11.80;99.90;304.90;52862.00;;;;5073138;28;20194;-71
2022/05/03 06:44:34;;;;;;;0.10;0.10;;;11.80;99.90;304.90;52868.00;;;;5073482;28;20296;-70
2022/05/03 06:47:03;;;;;;;0.10;0.10;;;11.80;99.90;304.90;52867.00;;;;5071826;28;20205;-71
2022/05/03 06:49:31;;;;;;;0.10;0.10;;;11.80;99.90;304.90;52865.00;;;;5073309;28;20182;-73
2022/05/03 06:51:59;;;;;;;0.10;0.10;;;11.80;99.90;305.10;52855.00;;;;5072922;28;20251;-70
2022/05/03 06:54:27;;;;;;;0.10;0.10;;;11.90;99.90;304.90;52872.00;;;;5073046;28;20236;-71
2022/05/03 06:56:56;;;;;;;0.10;0.10;;;11.80;99.90;304.90;52869.00;;;;5073169;28;20720;-71
2022/05/03 06:59:24;;;;;;;0.10;0.10;;;11.90;99.90;305.00;52859.00;;;;5071358;28;20717;-72
2022/05/03 07:01:52;;;;;;;0.10;0.10;;;11.90;99.90;305.40;52833.00;;;;5073119;28;20205;-72
2022/05/03 07:04:20;;;;;;;0.10;0.10;;;12.10;99.90;305.80;52799.00;;;;5073068;28;20245;-72
2022/05/03 07:06:48;;;;;;;0.10;0.10;;;12.30;99.90;306.20;52771.00;;;;5066252;28;20259;-70
2022/05/03 07:09:16;;;;;;;0.08;0.08;;;12.50;99.90;306.60;52735.00;;;;5059765;28;20202;-70
2022/05/03 07:11:44;;;;;;;0.10;0.10;;;12.70;99.90;307.00;52707.00;;;;5069672;28;20259;-72
2022/05/03 07:14:15;;;;;;;0.10;0.10;;;12.90;99.90;307.40;52678.00;;;;5072306;28;20224;-70
2022/05/03 07:16:43;;;;;;;0.10;0.10;;;13.10;99.90;307.70;52647.00;;;;5072473;28;20182;-70
2022/05/03 07:24:42;;;;;;;0.10;0.10;;;13.70;99.90;309.00;52550.00;;;;5072502;28;20213;-70
2022/05/03 07:27:09;;;;;;;0.10;0.10;;;13.90;99.90;309.30;52528.00;;;;5071911;28;20189;-70
2022/05/03 07:29:40;;;;;;;0.10;0.10;;;14.00;99.90;309.50;52503.00;;;;5072344;28;20678;-73
2022/05/03 07:32:08;;;;;;;0.00;0.00;;;14.20;99.90;309.80;52479.00;;;;5073214;28;20190;-71
2022/05/03 07:34:36;;;;;;;0.00;0.00;;;14.40;99.90;310.00;52464.00;;;;5073232;28;20262;-70
2022/05/03 07:37:05;;;;;;;0.10;0.10;;;14.50;99.90;309.90;52465.00;;;;5066067;28;20604;-70
2022/05/03 07:39:33;;;;;;;0.10;0.10;;;14.50;99.90;310.10;52461.00;;;;5070027;28;20221;-71
2022/05/03 07:42:01;;;;;;;0.10;0.10;;;14.60;99.90;310.60;52419.00;;;;5052292;28;20175;-70
2022/05/03 07:44:28;;;;;;;0.10;0.10;;;14.80;99.90;311.10;52376.00;;;;5051348;28;20222;-70
2022/05/03 07:46:58;;;;;;;0.10;0.10;;;15.00;99.90;311.50;52347.00;;;;5052598;28;20236;-71
2022/05/03 07:49:26;;;;;;;0.10;0.10;;;15.20;99.90;311.90;52318.00;;;;5053275;28;20198;-71
2022/05/03 07:51:54;;;;;;;0.10;0.10;;;15.40;99.90;312.00;52310.00;;;;5053311;28;20575;-70
2022/05/03 07:54:22;;;;;;;0.10;0.10;;;15.50;99.90;312.40;52322.00;;;;5053523;28;20225;-71
2022/05/03 07:56:53;;;;;;;0.10;0.10;;;15.70;99.90;313.10;52274.00;;;;5053516;28;20194;-74
2022/05/03 07:59:23;;;;;;;0.00;0.00;;;15.90;99.90;313.40;52249.00;;;;5053749;28;20222;-71
2022/05/03 08:01:51;;;;;;;0.00;0.00;;;16.10;99.90;313.60;52234.00;;;;5052627;28;20198;-71
2022/05/03 08:04:20;;;;;;;0.00;0.00;;;16.30;99.90;313.40;52244.00;;;;5053357;28;20280;-73
2022/05/03 08:06:48;;;;;;;0.00;0.00;;;16.30;99.90;313.40;52249.00;;;;5053851;28;20269;-71
2022/05/03 08:09:16;;;;;;;0.03;0.03;;;16.30;99.90;313.60;52238.00;;;;5054584;28;20186;-71
2022/05/03 08:11:44;;;;;;;0.00;0.00;;;16.30;99.90;314.10;52201.00;;;;5054183;28;20190;-71
2022/05/03 08:14:12;;;;;;;0.00;0.00;;;16.50;99.90;314.50;52165.00;;;;5052678;28;20224;-71
2022/05/03 08:16:40;;;;;;;0.00;0.00;;;16.70;99.90;314.90;51939.00;;;;5052364;28;20190;-71
2022/05/03 08:19:08;;;;;;;0.00;0.00;;;16.80;99.90;314.90;51942.00;;;;5052897;28;20218;-70
2022/05/03 08:21:39;;;;;;;0.00;0.00;;;16.90;99.90;315.20;51918.00;;;;5055142;28;20260;-70
2022/05/03 08:24:07;;;;;;;0.00;0.00;;;17.00;99.90;315.40;51898.00;;;;5055536;28;20295;-70
2022/05/03 08:26:35;;;;;;;0.00;0.00;;;17.10;99.90;315.20;51917.00;;;;5053156;28;20190;-73
2022/05/03 08:29:03;;;;;;;0.00;0.00;;;17.10;99.90;315.30;51905.00;;;;5052684;28;20606;-74
2022/05/03 08:31:31;;;;;;;0.00;0.00;;;17.20;99.90;315.10;51884.00;;;;5052958;28;20675;-72
2022/05/03 08:34:01;;;;;;;0.00;0.00;;;17.20;99.90;315.20;51873.00;;;;5053256;28;20190;-71
2022/05/03 08:36:30;;;;;;;0.00;0.00;;;17.30;99.90;315.70;51846.00;;;;5053106;28;20190;-72
2022/05/03 08:42:07;;;;;;;0.00;0.00;;;17.40;99.90;315.70;51842.00;;;;5055046;28;20191;-73
2022/05/03 08:44:35;;;;;;;0.00;0.00;;;17.40;99.90;315.50;51856.00;;;;5053598;28;20749;-71
2022/05/03 08:47:04;;;;;;;0.00;0.00;;;17.40;99.90;315.80;51842.00;;;;5054110;28;20190;-71
2022/05/03 08:49:42;;;;;;;0.00;0.00;;;17.50;99.90;315.90;51826.00;;;;5053411;28;20205;-73
2022/05/03 08:52:12;;;;;;;0.00;0.00;;;17.50;99.90;315.90;51825.00;;;;5053202;28;20197;-71
2022/05/03 08:54:42;;;;;;;0.10;0.10;;;17.60;99.90;316.20;51809.00;;;;5054102;28;20583;-71
2022/05/03 08:57:10;;;;;;;0.00;0.00;;;17.70;99.90;316.10;51807.00;;;;5055092;28;20194;-71
2022/05/03 08:59:39;;;;;;;0.00;0.00;;;17.70;99.90;316.50;51778.00;;;;5057682;28;20260;-71
2022/05/03 09:02:07;;;;;;;0.00;0.00;;;17.80;99.90;316.70;51759.00;;;;5056955;28;20240;-71
2022/05/03 09:04:35;;;;;;;0.00;0.00;;;17.90;99.90;316.90;51753.00;;;;5057025;28;20214;-71
2022/05/03 09:07:19;;;;;;;0.00;0.00;;;18.00;99.90;317.10;51736.00;;;;5056665;28;20265;-71
2022/05/03 09:09:51;;;;;;;0.00;0.00;;;18.10;99.90;317.20;51729.00;;;;5058332;28;20194;-71
2022/05/03 09:12:27;;;;;;;0.00;0.00;;;18.20;99.90;317.30;51716.00;;;;5057406;28;20213;-71
2022/05/03 09:14:58;;;;;;;0.00;0.00;;;18.30;99.90;317.70;51682.00;;;;5057952;28;20225;-71
2022/05/03 09:17:38;;;;;;;0.00;0.00;;;18.40;99.90;318.40;51631.00;;;;5065917;28;20217;-71
2022/05/03 09:26:12;;;;;;;0.00;0.00;;;19.10;99.90;319.50;51549.00;;;;5076900;28;20790;-71
2022/05/03 09:28:52;;;;;;;0.00;0.00;;;19.40;99.90;319.90;51524.00;;;;5078134;28;20186;-74
2022/05/03 09:31:32;;;;;;;0.00;0.00;;;19.50;99.90;319.80;51526.00;;;;5077908;28;20198;-71
2022/05/03 09:34:04;;;;;;;0.00;0.00;;;19.50;99.90;319.90;51521.00;;;;5077598;28;20189;-71
2022/05/03 09:36:44;;;;;;;0.00;0.00;;;19.50;99.90;320.20;51495.00;;;;5076773;28;20194;-71
2022/05/03 09:39:33;;;;;;;0.00;0.00;;;19.60;99.90;319.90;51518.00;;;;5077600;28;20314;-71
2022/05/03 09:42:09;;;;;;;0.00;0.00;;;19.60;99.90;319.90;51525.00;;;;5077023;28;20569;-71
2022/05/03 09:44:52;;;;;;;0.00;0.00;;;19.70;99.90;320.00;51506.00;;;;5076597;28;20240;-72
2022/05/03 09:47:22;;;;;;;0.00;0.00;;;19.60;99.90;320.10;51508.00;;;;5076052;28;20194;-72
2022/05/03 09:49:51;;;;;;;0.00;0.00;;;19.70;99.90;320.50;51479.00;;;;5076821;28;20251;-71
2022/05/03 09:52:29;;;;;;;0.00;0.00;;;19.80;99.90;320.50;51474.00;;;;5076448;28;20216;-72
2022/05/03 09:55:03;;;;;;;0.00;0.00;;;19.90;99.90;320.90;51444.00;;;;5076204;28;20205;-71
2022/05/03 09:57:35;;;;;;;0.00;0.00;;;20.00;99.90;321.20;51421.00;;;;5076512;28;20213;-74
2022/05/03 10:00:07;;;;;;;0.00;0.00;;;20.10;99.90;321.10;51422.00;;;;5076098;28;20228;-72
2022/05/03 10:02:45;;;;;;;0.00;0.00;;;20.20;99.90;321.50;51401.00;;;;5077360;28;20198;-74
2022/05/03 10:05:17;;;;;;;0.00;0.00;;;20.30;99.90;321.60;51391.00;;;;5076083;28;20703;-72
2022/05/03 10:07:46;;;;;;;0.00;0.00;;;20.40;99.90;322.10;51350.00;;;;5079630;28;20204;-72
2022/05/03 10:10:16;;;;;;;0.00;0.00;;;20.50;99.90;322.30;51333.00;;;;5082669;28;20772;-72
2022/05/03 10:12:47;;;;;;;0.00;0.00;;;20.70;99.90;322.40;51331.00;;;;5083973;28;20194;-72
2022/05/03 10:20:35;;;;;;;0.00;0.00;;;20.80;99.90;322.70;51313.00;;;;5083758;28;20290;-72
2022/05/03 10:21:10;;;;;;;0.00;0.00;;;20.90;99.90;322.20;51343.00;;;;5079940;28;20244;-75
2022/05/03 10:23:38;;;;;;;0.00;0.00;;;20.90;99.90;322.20;51345.00;;;;5080720;28;20671;-72
2022/05/03 10:26:08;;;;;;;0.00;0.00;;;20.80;99.90;321.30;51412.00;;;;5080078;28;20212;-72
2022/05/03 10:29:08;;;;;;;0.00;0.00;;;20.50;99.90;322.30;51333.00;;;;5078666;28;20209;-71
2022/05/03 10:32:00;;;;;;;0.00;0.00;;;20.70;99.90;322.90;51292.00;;;;5078397;28;20198;-71
2022/05/03 10:34:52;;;;;;;0.00;0.00;;;20.90;99.90;323.70;51244.00;;;;5074940;28;20719;-71
2022/05/03 10:37:55;;;;;;;0.00;0.00;;;21.20;99.90;324.40;51181.00;;;;5078239;28;20277;-71
2022/05/03 10:40:31;;;;;;;0.00;0.00;;;21.50;99.80;324.50;51173.00;;;;5077805;28;20678;-72
2022/05/03 10:43:06;;;;;;;0.00;0.00;;;21.70;99.60;324.10;51204.00;;;;5076110;28;20844;-71
2022/05/03 10:45:53;;;;;;;0.00;0.00;;;21.60;99.70;324.00;51211.00;;;;5075204;28;20213;-71
2022/05/03 10:48:29;;;;;;;0.00;0.00;;;21.60;99.20;324.60;51168.00;;;;5076960;28;20193;-71
2022/05/03 10:51:00;;;;;;;0.00;0.00;;;21.80;98.90;324.40;51180.00;;;;5075937;28;20220;-71
2022/05/03 10:53:32;;;;;;;0.00;0.00;;;21.80;98.40;324.10;51199.00;;;;5076980;28;20201;-71
2022/05/03 10:56:21;;;;;;;0.00;0.00;;;21.70;98.70;324.70;51158.00;;;;5076036;28;20224;-72
2022/05/03 10:59:14;;;;;;;0.00;0.00;;;21.80;99.10;325.00;51142.00;;;;5076096;28;20197;-71
2022/05/03 11:02:09;;;;;;;0.00;0.00;;;21.80;98.00;324.80;51147.00;;;;5074897;28;20554;-71
2022/05/03 11:05:16;;;;;;;0.00;0.00;;;21.90;97.90;325.50;51096.00;;;;5075784;28;20213;-71
2022/05/03 11:08:15;;;;;;;0.00;0.00;;;22.10;97.60;325.80;51079.00;;;;5077864;28;20201;-72
2022/05/03 11:10:45;;;;;;;0.00;0.00;;;22.30;97.30;326.00;51062.00;;;;5079252;28;20194;-72
2022/05/03 11:13:38;;;;;;;0.00;0.00;;;22.50;97.00;326.50;51023.00;;;;5077083;28;20224;-70
2022/05/03 11:16:24;;;;;;;0.00;0.00;;;22.70;96.50;327.00;51028.00;;;;5075794;28;20615;-70
2022/05/03 11:18:55;;;;;;;0.00;0.00;;;22.90;96.00;327.30;50979.00;;;;5061225;28;20201;-71
2022/05/03 11:21:23;;;;;;;0.00;0.00;;;23.00;95.60;327.30;50964.00;;;;5076980;28;20638;-72
2022/05/03 11:23:53;;;;;;;0.00;0.00;;;23.10;95.30;327.40;50958.00;;;;5074688;28;20209;-72
2022/05/03 11:26:25;;;;;;;0.00;0.00;;;23.20;94.80;327.70;50941.00;;;;5074836;28;20608;-71
2022/05/03 11:28:58;;;;;;;0.00;0.00;;;23.20;94.90;327.50;50952.00;;;;5075271;28;20190;-71
2022/05/03 11:31:27;;;;;;;0.03;0.03;;;23.20;94.50;327.70;50942.00;;;;5075877;28;20552;-72
2022/05/03 11:33:59;;;;;;;0.00;0.00;;;23.20;94.40;327.60;50942.00;;;;5075681;28;20186;-71
2022/05/03 11:36:29;;;;;;;0.00;0.00;;;23.20;94.80;327.70;50930.00;;;;5074563;28;20244;-71
2022/05/03 11:38:57;;;;;;;0.00;0.00;;;23.20;94.40;328.10;50905.00;;;;5075698;28;20213;-71
2022/05/03 11:41:28;;;;;;;0.00;0.00;;;23.40;94.00;328.20;50894.00;;;;5074528;28;20275;-72
2022/05/03 11:43:57;;;;;;;0.00;0.00;;;23.40;93.60;328.20;50899.00;;;;5074543;28;20194;-72
2022/05/03 11:46:26;;;;;;;0.00;0.00;;;23.50;93.10;328.30;50891.00;;;;5073379;28;20197;-71